North Cascades National Park, WA

11:44 PM PDT on August 20, 2014 (GMT -0700)
Skagit Regional | Change Station
CLOSE
Current Station
Airport
Location: Burlington,
Elevation: 144 ft
Nearby Weather Stations

Elev 144 ft 48.47 °N, 122.42 °W | Updated 9 minutes ago

Clear
Clear
57 °F
Feels Like 57 °F
N
0
Wind Variable Wind from North

Today
High -- | Low -- °F
--% Chance of Precip.
Yesterday
High -- | Low -- °F
Precip. -- in
6:06 AM 8:10 PM
Waning Crescent, 16% visible
Pressure 30.00 in
Visibility 10.0 miles
Clouds Clear
Dew Point 55 °F
Humidity 94%
Rainfall 0.00 in
Snow Depth Not available.
UV 0 out of 12
Pollen 2.70 out of 12
PM2.5 Good
Flu Activity Not available.
METAR KBVS 210635Z AUTO 00000KT 10SM CLR 14/13 A3000 RMK A01 P000

More Conditions Fewer Conditions

Pressure 30.00 in
Visibility 10.0 miles
Clouds Clear
Dew Point 55 °F
Humidity 94%
Rainfall 0.00 in
Snow Depth Not available.
UV 0 out of 12
Pollen 2.70 out of 12
PM2.5 Good
Flu Activity Not available.
METAR KBVS 210635Z AUTO 00000KT 10SM CLR 14/13 A3000 RMK A01 P000

More Conditions Fewer Conditions

10-Day Weather Forecast

Almanac

Astronomy

Aug. 20, 2014 Rise Set
Actual Time 6:06 AM PDT 8:10 PM PDT
Civil Twilight 5:32 AM PDT 8:44 PM PDT
Nautical Twilight 4:50 AM PDT 9:26 PM PDT
Astronomical Twilight 4:02 AM PDT 10:13 PM PDT
Moon 1:41 AM PDT (8/20) 5:08 PM PDT (8/20)
Length of Visible Light 15h 12m
Length of Day
14h 04m
Tomorrow will be 3m 16s shorter.
Waning Crescent, 16% of the Moon is Illuminated
Aug 21
Waning Crescent
Aug 25
New
Sep 2
First Quarter
Sep 8
Full
Sep 15
Last Quarter

Community

WunderPhotos

Upload Photos

1,745,858 photos uploaded!

Nearby

Air Quality

  Air Quality AQ Index Pollutant
Yesterday Good
PM2.5
Current Good
PM2.5
Wednesday Good
OZONE
Wednesday Good
PM2.5
Thursday Good
OZONE
Thursday Good
PM2.5
Friday Good
OZONE
Friday Good
PM2.5
Saturday Good
OZONE
Saturday Good
PM2.5

Snow Depth

Station Depth Elevation
Elbow Lake 0 in 3200 ft
Beaver Pass 0 in 3620 ft
Rainy Pass 0 in 4780 ft
Lyman Lake 1 in 5900 ft
Harts Pass 0 in 6500 ft

Earthquake Activity

City Distance Mag. Time & Date
No recent earthquake activity has been reported nearby.
Minimum magnitude displayed is 2.5.

Coastal Water Temperatures

Place Temperature
No Stations Reporting

Nearby Weather Stations